Bay View, Ohio
Current Conditions -  °F | °C
As of 11:53 AM on Wednesday 22 Oct 2014 (Local Time) from KPCW Reporting Station
Overcast Overcast  
Wind Chill: 44°   Ceiling: 1800
Heat Index: 48°   Visibility: 10mi
Dew Point: 41°   Wind: 8mph
Humidity: 77%   Direction: 20°NNE
Pressure: 30.3"   Gusts: NA
Location:  41.4028°N, 82.7181°W
Report Text: KPCW 221553Z AUTO 02007KT 10SM OVC018 09/05 A3030 RMK AO2 T00880050 $
Loading
Personal Weather Stations






























Interactive Weather Map
Tropical Storm Tracking
New forecast layout! Learn more

10-Day Weather Forecast

Advertisements
Track Severe Weather on mobile